Time;durP1;ratioP1;P1;durP2;ratioP2;P2;SDS_P1;SDS_P2;PMS_P1;PMS_P2;Temp;Humidity;BMP_temperature;BMP_pressure;BME280_temperature;BME280_humidity;BME280_pressure;Samples;Min_cycle;Max_cycle;Signal;HPM_P1;HPM_P2
2023/01/06 00:01:33;;;;;;;3.40;1.50;;;10.80;99.90;;;;;;5093571;28;20228;-84
2023/01/06 00:03:59;;;;;;;3.90;1.60;;;10.80;99.90;;;;;;5094850;28;20707;-84
2023/01/06 00:06:26;;;;;;;3.08;1.60;;;10.80;99.90;;;;;;5093478;28;20169;-81
2023/01/06 00:09:00;;;;;;;2.00;1.48;;;10.80;99.90;;;;;;5094792;28;20660;-85
2023/01/06 00:11:25;;;;;;;3.80;2.08;;;10.80;99.90;;;;;;5094680;28;20247;-84
2023/01/06 00:13:51;;;;;;;4.47;1.63;;;10.80;99.90;;;;;;5094684;28;20334;-81
2023/01/06 00:16:19;;;;;;;3.40;1.70;;;10.80;99.90;;;;;;5092427;28;20574;-80
2023/01/06 00:18:45;;;;;;;2.97;1.88;;;10.80;99.90;;;;;;5093206;28;20481;-81
2023/01/06 00:21:13;;;;;;;1.30;1.20;;;10.80;99.90;;;;;;5094494;28;20305;-80
2023/01/06 00:23:39;;;;;;;3.63;1.10;;;10.80;99.90;;;;;;5092885;28;20200;-84
2023/01/06 00:26:07;;;;;;;3.42;1.40;;;10.70;99.90;;;;;;5094425;28;20169;-83
2023/01/06 00:28:33;;;;;;;4.18;1.42;;;10.70;99.90;;;;;;5092884;28;20204;-81
2023/01/06 00:31:04;;;;;;;1.40;1.30;;;10.70;99.90;;;;;;5094417;28;20164;-83
2023/01/06 00:33:30;;;;;;;2.22;1.30;;;10.70;99.90;;;;;;5094174;28;20547;-84
2023/01/06 00:35:58;;;;;;;7.97;1.60;;;10.70;99.90;;;;;;5094207;28;20207;-81
2023/01/06 00:38:24;;;;;;;2.15;1.30;;;10.70;99.90;;;;;;5094106;28;20223;-81
2023/01/06 00:40:49;;;;;;;3.70;1.37;;;10.80;99.90;;;;;;5094231;28;20691;-83
2023/01/06 00:43:15;;;;;;;1.57;1.47;;;10.80;99.90;;;;;;5094158;28;20224;-84
2023/01/06 00:45:41;;;;;;;2.17;1.70;;;10.80;99.90;;;;;;5092809;28;20183;-84
2023/01/06 00:48:07;;;;;;;3.60;1.57;;;10.80;99.90;;;;;;5093824;28;20435;-84
2023/01/06 00:50:32;;;;;;;1.93;1.40;;;10.90;99.90;;;;;;5093958;28;20203;-82
2023/01/06 00:52:58;;;;;;;2.30;1.87;;;10.90;99.90;;;;;;5092713;28;20570;-81
2023/01/06 00:55:24;;;;;;;5.10;1.40;;;10.90;99.90;;;;;;5093664;28;20229;-81
2023/01/06 00:57:53;;;;;;;2.27;1.60;;;10.90;99.90;;;;;;5092627;28;20744;-81
2023/01/06 01:00:18;;;;;;;1.92;1.60;;;10.90;99.90;;;;;;5092854;28;20827;-81
2023/01/06 01:02:44;;;;;;;4.00;1.70;;;10.90;99.90;;;;;;5093868;28;20188;-84
2023/01/06 01:05:10;;;;;;;1.63;1.40;;;10.90;99.90;;;;;;5092785;28;20425;-81
2023/01/06 01:07:36;;;;;;;2.03;1.48;;;10.80;99.90;;;;;;5093753;28;20336;-84
2023/01/06 01:10:02;;;;;;;4.70;1.53;;;10.80;99.90;;;;;;5094205;28;20271;-79
2023/01/06 01:12:28;;;;;;;2.38;1.38;;;10.80;99.90;;;;;;5093729;28;20685;-84
2023/01/06 01:14:54;;;;;;;3.53;1.40;;;10.80;99.90;;;;;;5092604;28;20215;-81
2023/01/06 01:17:30;;;;;;;3.60;2.00;;;10.80;99.90;;;;;;5092369;28;20605;-84
2023/01/06 01:19:58;;;;;;;3.20;1.42;;;10.70;99.90;;;;;;5094235;28;20420;-84
2023/01/06 01:22:25;;;;;;;3.47;1.50;;;10.70;99.90;;;;;;5092280;28;20189;-81
2023/01/06 01:24:51;;;;;;;2.00;1.40;;;10.70;99.90;;;;;;5094016;28;20269;-83
2023/01/06 01:27:17;;;;;;;1.90;1.50;;;10.70;99.90;;;;;;5093901;28;20642;-83
2023/01/06 01:29:43;;;;;;;4.05;1.60;;;10.70;99.90;;;;;;5097657;28;20270;-81
2023/01/06 01:32:09;;;;;;;3.00;1.53;;;10.70;99.90;;;;;;5097772;28;20207;-84
2023/01/06 01:34:35;;;;;;;4.05;1.35;;;10.70;99.90;;;;;;5096431;28;20188;-84
2023/01/06 01:37:00;;;;;;;2.13;1.60;;;10.70;99.90;;;;;;5097528;28;20204;-81
2023/01/06 01:39:29;;;;;;;2.80;1.60;;;10.70;99.90;;;;;;5097875;28;20180;-81
2023/01/06 01:41:57;;;;;;;4.63;1.67;;;10.70;99.90;;;;;;5097498;28;20172;-83
2023/01/06 01:45:00;;;;;;;2.40;1.27;;;10.70;99.90;;;;;;5096234;28;20237;-83
2023/01/06 01:47:50;;;;;;;2.47;1.30;;;10.70;99.90;;;;;;5096176;28;20694;-80
2023/01/06 01:50:29;;;;;;;3.20;1.55;;;10.70;99.90;;;;;;5096419;28;20211;-80
2023/01/06 01:53:01;;;;;;;2.45;1.35;;;10.70;99.90;;;;;;5096073;28;20285;-83
2023/01/06 01:55:29;;;;;;;2.83;1.23;;;10.70;99.90;;;;;;5095766;28;20641;-80
2023/01/06 01:58:02;;;;;;;4.78;1.30;;;10.70;99.90;;;;;;5095972;28;20722;-80
2023/01/06 02:00:28;;;;;;;4.18;1.88;;;10.70;99.90;;;;;;5097146;28;20319;-83
2023/01/06 02:02:54;;;;;;;5.50;1.50;;;10.80;99.90;;;;;;5095828;28;20224;-80
2023/01/06 02:05:24;;;;;;;2.10;1.63;;;10.80;99.90;;;;;;5097600;28;20181;-81
2023/01/06 02:07:50;;;;;;;1.98;1.40;;;10.80;99.90;;;;;;5095718;28;20200;-81
2023/01/06 02:10:25;;;;;;;1.65;1.30;;;10.80;99.90;;;;;;5096033;28;20683;-81
2023/01/06 02:12:56;;;;;;;2.42;1.35;;;10.80;99.90;;;;;;5096921;28;20528;-81
2023/01/06 02:15:30;;;;;;;2.10;1.85;;;10.80;99.90;;;;;;5097434;28;20212;-81
2023/01/06 02:18:14;;;;;;;2.72;1.30;;;10.80;99.90;;;;;;5096872;28;20203;-80
2023/01/06 02:21:10;;;;;;;2.50;1.33;;;10.90;99.90;;;;;;5096893;28;20180;-83
2023/01/06 02:23:54;;;;;;;4.63;1.63;;;10.80;99.90;;;;;;5096780;28;20291;-84
2023/01/06 02:26:20;;;;;;;3.55;1.58;;;10.90;99.90;;;;;;5095474;28;20180;-84
2023/01/06 02:28:54;;;;;;;1.50;1.17;;;10.90;99.90;;;;;;5095271;28;20207;-81
2023/01/06 02:32:00;;;;;;;3.63;1.92;;;10.90;99.90;;;;;;5096575;28;20236;-83
2023/01/06 02:34:40;;;;;;;4.10;1.25;;;10.90;99.90;;;;;;5096718;28;20199;-82
2023/01/06 02:37:33;;;;;;;2.83;1.50;;;10.80;99.90;;;;;;5096408;28;20239;-84
2023/01/06 02:40:37;;;;;;;4.75;1.20;;;10.80;99.90;;;;;;5094595;28;20234;-81
2023/01/06 02:43:25;;;;;;;1.45;1.20;;;10.80;99.90;;;;;;5096398;28;20202;-84
2023/01/06 02:45:59;;;;;;;1.73;1.50;;;10.80;99.90;;;;;;5095092;28;20549;-81
2023/01/06 02:48:50;;;;;;;2.72;1.52;;;10.80;99.90;;;;;;5096336;28;20188;-84
2023/01/06 02:51:21;;;;;;;3.38;1.33;;;10.80;99.90;;;;;;5096300;28;20167;-84
2023/01/06 02:54:18;;;;;;;2.10;1.65;;;10.80;99.90;;;;;;5095901;28;20192;-80
2023/01/06 02:56:53;;;;;;;3.47;1.60;;;10.90;99.90;;;;;;5063831;28;20224;-81
2023/01/06 02:59:31;;;;;;;6.43;1.70;;;10.90;99.90;;;;;;5096413;28;20629;-80
2023/01/06 03:01:59;;;;;;;3.25;1.25;;;10.90;99.90;;;;;;5096031;28;20256;-81
2023/01/06 03:04:29;;;;;;;4.20;1.48;;;10.90;99.90;;;;;;5095875;28;20176;-81
2023/01/06 03:06:57;;;;;;;3.15;1.25;;;11.00;99.90;;;;;;5094632;28;20188;-84
2023/01/06 03:09:33;;;;;;;2.50;2.20;;;11.00;99.90;;;;;;5096068;28;20255;-81
2023/01/06 03:12:11;;;;;;;1.80;1.63;;;11.00;99.90;;;;;;5095839;28;20160;-81
2023/01/06 03:14:46;;;;;;;1.80;1.70;;;11.00;99.90;;;;;;5096148;28;20176;-83
2023/01/06 03:17:12;;;;;;;6.60;2.15;;;11.00;99.90;;;;;;5094409;28;20215;-80
2023/01/06 03:19:38;;;;;;;9.13;2.25;;;10.90;99.90;;;;;;5095985;28;20184;-84
2023/01/06 03:22:07;;;;;;;3.65;1.73;;;10.90;99.90;;;;;;5095614;28;20169;-84
2023/01/06 03:24:35;;;;;;;6.70;1.70;;;10.90;99.90;;;;;;5094425;28;20188;-83
2023/01/06 03:27:03;;;;;;;4.43;2.13;;;10.90;99.90;;;;;;5094251;28;20618;-81
2023/01/06 03:29:29;;;;;;;3.28;1.73;;;10.90;99.90;;;;;;5095694;28;20164;-81
2023/01/06 03:32:00;;;;;;;2.67;1.65;;;10.90;99.90;;;;;;5094128;28;20185;-81
2023/01/06 03:35:04;;;;;;;2.63;1.45;;;10.80;99.90;;;;;;5095563;28;20204;-81
2023/01/06 03:37:48;;;;;;;1.55;1.45;;;10.80;99.90;;;;;;5095299;28;20580;-80
2023/01/06 03:40:22;;;;;;;4.97;1.88;;;10.80;99.90;;;;;;5095951;28;20605;-84
2023/01/06 03:43:17;;;;;;;3.85;1.75;;;10.80;99.90;;;;;;5093965;28;20195;-81
2023/01/06 03:46:14;;;;;;;7.30;1.83;;;10.80;99.90;;;;;;5095343;28;20168;-83
2023/01/06 03:48:46;;;;;;;3.67;1.70;;;10.80;99.90;;;;;;5095209;28;20193;-84
2023/01/06 03:51:14;;;;;;;6.65;2.30;;;10.90;99.90;;;;;;5093766;28;20282;-80
2023/01/06 03:54:02;;;;;;;3.42;1.80;;;10.80;99.90;;;;;;5094692;28;20200;-83
2023/01/06 03:57:00;;;;;;;2.95;1.60;;;10.90;99.90;;;;;;5094884;28;20212;-83
2023/01/06 03:59:29;;;;;;;5.00;2.22;;;10.80;99.90;;;;;;5090909;28;20198;-81
2023/01/06 04:01:55;;;;;;;4.38;1.77;;;10.80;99.90;;;;;;5094753;28;20172;-84
2023/01/06 04:04:21;;;;;;;1.85;1.60;;;10.80;99.90;;;;;;5095066;28;20204;-81
2023/01/06 04:06:47;;;;;;;8.50;2.40;;;10.80;99.90;;;;;;5093498;28;20208;-82
2023/01/06 04:09:12;;;;;;;4.03;1.90;;;10.80;99.90;;;;;;5093368;28;20204;-84
2023/01/06 04:14:22;;;;;;;3.63;2.28;;;10.80;99.90;;;;;;5094963;28;20187;-83
2023/01/06 04:16:47;;;;;;;3.23;2.00;;;10.80;99.90;;;;;;5094481;28;20208;-81
2023/01/06 04:19:13;;;;;;;6.57;2.00;;;10.90;99.90;;;;;;5094671;28;20203;-84
2023/01/06 04:21:39;;;;;;;3.77;1.83;;;10.80;99.90;;;;;;5093251;28;20176;-81
2023/01/06 04:24:05;;;;;;;5.93;2.03;;;10.90;99.90;;;;;;5094687;28;20196;-84
2023/01/06 04:26:32;;;;;;;3.07;1.73;;;11.00;99.90;;;;;;5093077;28;20176;-82
2023/01/06 04:28:58;;;;;;;5.82;2.00;;;11.00;99.90;;;;;;5093022;28;20459;-83
2023/01/06 04:31:24;;;;;;;5.53;2.17;;;10.90;99.90;;;;;;5093197;28;20221;-83
2023/01/06 04:33:50;;;;;;;6.03;2.20;;;10.90;99.90;;;;;;5094335;28;20259;-81
2023/01/06 04:36:16;;;;;;;1.90;1.80;;;10.80;99.90;;;;;;5092910;28;20258;-83
2023/01/06 04:38:41;;;;;;;5.87;2.10;;;10.80;99.90;;;;;;5092958;28;20444;-83
2023/01/06 04:41:07;;;;;;;4.77;2.27;;;10.70;99.90;;;;;;5092949;28;20913;-84
2023/01/06 04:43:33;;;;;;;4.23;1.67;;;10.80;99.90;;;;;;5092792;28;20192;-83
2023/01/06 04:45:59;;;;;;;4.40;2.08;;;10.70;99.90;;;;;;5094300;28;20640;-84
2023/01/06 04:48:25;;;;;;;4.70;2.17;;;10.60;99.90;;;;;;5092647;28;20297;-84
2023/01/06 04:51:03;;;;;;;2.07;1.90;;;10.60;99.90;;;;;;5094060;28;20222;-84
2023/01/06 04:53:28;;;;;;;3.28;2.33;;;10.60;99.90;;;;;;5093917;28;20199;-81
2023/01/06 04:55:54;;;;;;;3.93;2.07;;;10.60;99.90;;;;;;5073659;28;20677;-84
2023/01/06 04:58:20;;;;;;;3.63;1.87;;;10.50;99.90;;;;;;5073624;28;20707;-80
2023/01/06 05:00:45;;;;;;;2.20;1.67;;;10.50;99.90;;;;;;5073768;28;20208;-82
2023/01/06 05:03:11;;;;;;;3.30;2.13;;;10.50;99.90;;;;;;5071877;28;20288;-81
2023/01/06 05:05:37;;;;;;;5.80;1.87;;;10.50;99.90;;;;;;5072429;28;20177;-83
2023/01/06 05:08:03;;;;;;;2.40;2.07;;;10.50;99.90;;;;;;5072318;28;20207;-80
2023/01/06 05:10:28;;;;;;;2.13;1.70;;;10.50;99.90;;;;;;5072530;28;20414;-83
2023/01/06 05:12:54;;;;;;;3.53;2.33;;;10.50;99.90;;;;;;5072318;28;20470;-84
2023/01/06 05:15:20;;;;;;;3.10;2.00;;;10.50;99.90;;;;;;5072468;28;20209;-79
2023/01/06 05:17:45;;;;;;;4.83;1.87;;;10.50;99.90;;;;;;5072206;28;20193;-83
2023/01/06 05:20:11;;;;;;;2.00;1.80;;;10.60;99.90;;;;;;5073930;28;20174;-82
2023/01/06 05:22:37;;;;;;;2.50;1.90;;;10.60;99.90;;;;;;5072189;28;20300;-81
2023/01/06 05:25:03;;;;;;;3.90;1.90;;;10.60;99.90;;;;;;5072372;28;20422;-83
2023/01/06 05:27:28;;;;;;;7.57;3.60;;;10.70;99.90;;;;;;5073396;28;20197;-81
2023/01/06 05:29:54;;;;;;;3.53;2.00;;;10.60;99.90;;;;;;5073897;28;20177;-80
2023/01/06 05:32:20;;;;;;;2.80;1.90;;;10.60;99.90;;;;;;5072054;28;20327;-81
2023/01/06 05:34:45;;;;;;;5.17;2.20;;;10.60;99.90;;;;;;5073814;28;20217;-82
2023/01/06 05:37:11;;;;;;;3.67;2.50;;;10.60;99.90;;;;;;5072097;28;20224;-83
2023/01/06 05:39:37;;;;;;;3.47;2.07;;;10.60;99.90;;;;;;5073663;28;20192;-83
2023/01/06 05:42:02;;;;;;;2.03;1.67;;;10.60;99.90;;;;;;5072048;28;20173;-81
2023/01/06 05:44:28;;;;;;;4.23;2.27;;;10.60;99.90;;;;;;5073540;28;20177;-81
2023/01/06 05:46:54;;;;;;;3.07;2.20;;;10.60;99.90;;;;;;5073561;28;20207;-80
2023/01/06 05:49:19;;;;;;;6.10;2.90;;;10.50;99.90;;;;;;5072081;28;20200;-81
2023/01/06 05:51:45;;;;;;;4.73;2.10;;;10.40;99.90;;;;;;5073367;28;20170;-82
2023/01/06 05:54:11;;;;;;;3.93;2.87;;;10.40;99.90;;;;;;5078794;28;20232;-81
2023/01/06 05:56:36;;;;;;;9.13;3.30;;;10.40;99.90;;;;;;5093242;28;20211;-83
2023/01/06 05:59:02;;;;;;;4.20;2.20;;;10.30;99.90;;;;;;5092109;28;20641;-84
2023/01/06 06:01:30;;;;;;;3.03;2.10;;;10.20;99.90;;;;;;5093239;28;20172;-83
2023/01/06 06:03:56;;;;;;;2.92;2.00;;;10.20;99.90;;;;;;5093103;28;20226;-84
2023/01/06 06:06:24;;;;;;;5.70;2.35;;;10.20;99.90;;;;;;5092018;28;20212;-83
2023/01/06 06:08:50;;;;;;;4.85;2.03;;;10.10;99.90;;;;;;5091870;28;20570;-84
2023/01/06 06:11:18;;;;;;;1.97;1.50;;;10.10;99.90;;;;;;5093329;28;20171;-82
2023/01/06 06:13:50;;;;;;;2.65;1.60;;;10.10;99.90;;;;;;5091950;28;20455;-81
2023/01/06 06:16:18;;;;;;;2.50;1.65;;;10.10;99.90;;;;;;5095136;28;20212;-84
2023/01/06 06:18:52;;;;;;;5.57;1.65;;;10.10;99.90;;;;;;5096698;28;20206;-84
2023/01/06 06:21:20;;;;;;;4.00;1.90;;;10.20;99.90;;;;;;5096881;28;20165;-84
2023/01/06 06:23:46;;;;;;;5.75;2.35;;;10.20;99.90;;;;;;5096798;28;20672;-81
2023/01/06 06:26:12;;;;;;;4.40;2.10;;;10.30;99.90;;;;;;5095538;28;20181;-81
2023/01/06 06:28:39;;;;;;;6.53;1.93;;;10.30;99.90;;;;;;5096621;28;20386;-81
2023/01/06 06:31:06;;;;;;;4.40;2.17;;;10.40;99.90;;;;;;5096676;28;20702;-79
2023/01/06 06:33:33;;;;;;;4.20;1.70;;;10.40;99.90;;;;;;5096499;28;20669;-84
2023/01/06 06:35:59;;;;;;;4.82;1.95;;;10.40;99.90;;;;;;5096573;28;20592;-84
2023/01/06 06:38:25;;;;;;;5.63;1.63;;;10.50;99.90;;;;;;5096435;28;22845;-81
2023/01/06 06:40:50;;;;;;;1.80;1.70;;;10.50;99.90;;;;;;5096475;28;20180;-83
2023/01/06 06:43:16;;;;;;;4.40;2.10;;;10.50;99.90;;;;;;5096316;28;20194;-81
2023/01/06 06:45:46;;;;;;;2.30;1.80;;;10.50;99.90;;;;;;5096207;28;20649;-84
2023/01/06 06:48:11;;;;;;;2.38;1.50;;;10.50;99.90;;;;;;5094675;28;20207;-81
2023/01/06 06:50:37;;;;;;;3.60;2.50;;;10.50;99.90;;;;;;5096220;28;20168;-81
2023/01/06 06:53:03;;;;;;;3.30;1.90;;;10.50;99.90;;;;;;5094859;28;20196;-80
2023/01/06 06:55:28;;;;;;;3.27;2.20;;;10.50;99.90;;;;;;5095939;28;20232;-84
2023/01/06 06:57:54;;;;;;;2.20;1.67;;;10.60;99.90;;;;;;5096104;28;20188;-84
2023/01/06 07:00:20;;;;;;;4.13;1.80;;;10.60;99.90;;;;;;5094526;28;20188;-80
2023/01/06 07:02:49;;;;;;;6.50;2.00;;;10.50;99.90;;;;;;5095933;28;20279;-84
2023/01/06 07:05:16;;;;;;;3.00;1.65;;;10.60;99.90;;;;;;5096222;28;20541;-81
2023/01/06 07:07:42;;;;;;;3.17;2.08;;;10.60;99.90;;;;;;5094596;28;20192;-82
2023/01/06 07:10:12;;;;;;;4.07;2.88;;;10.70;99.90;;;;;;5095871;28;20191;-81
2023/01/06 07:12:38;;;;;;;3.58;2.03;;;10.70;99.90;;;;;;5095138;28;20188;-81
2023/01/06 07:15:04;;;;;;;6.13;2.40;;;10.70;99.90;;;;;;5095268;28;20187;-81
2023/01/06 07:17:30;;;;;;;3.47;2.20;;;10.70;99.90;;;;;;5093824;28;20271;-81
2023/01/06 07:19:55;;;;;;;4.30;2.20;;;10.70;99.90;;;;;;5093868;28;20259;-80
2023/01/06 07:22:21;;;;;;;6.97;2.97;;;10.80;99.90;;;;;;5092152;28;20192;-84
2023/01/06 07:24:47;;;;;;;5.73;2.63;;;10.80;99.90;;;;;;5092307;28;20219;-80
2023/01/06 07:27:12;;;;;;;3.97;3.10;;;10.80;99.90;;;;;;5091893;28;20602;-80
2023/01/06 07:29:38;;;;;;;3.43;2.10;;;10.90;99.90;;;;;;5094000;28;20184;-84
2023/01/06 07:32:04;;;;;;;3.93;2.50;;;10.90;99.90;;;;;;5092792;28;20172;-84
2023/01/06 07:34:30;;;;;;;2.95;2.33;;;11.00;99.90;;;;;;5093965;28;20172;-79
2023/01/06 07:36:56;;;;;;;4.83;2.83;;;11.00;99.90;;;;;;5093920;28;20196;-84
2023/01/06 07:39:21;;;;;;;4.67;1.87;;;11.00;99.90;;;;;;5092987;28;20761;-84
2023/01/06 07:41:47;;;;;;;4.70;2.70;;;11.10;99.90;;;;;;5095095;28;20172;-83
2023/01/06 07:44:13;;;;;;;3.60;2.33;;;11.20;99.90;;;;;;5093731;28;20220;-83
2023/01/06 07:46:39;;;;;;;4.27;2.50;;;11.50;99.90;;;;;;5092226;28;20271;-81
2023/01/06 07:49:05;;;;;;;3.53;2.20;;;11.90;99.90;;;;;;5091041;28;20204;-81
2023/01/06 07:51:31;;;;;;;7.50;2.53;;;12.50;99.90;;;;;;5090911;28;20409;-81
2023/01/06 07:53:56;;;;;;;4.93;2.80;;;13.10;99.90;;;;;;5088995;28;20240;-80
2023/01/06 07:56:22;;;;;;;14.23;8.83;;;13.80;99.90;;;;;;5089694;28;20203;-80
2023/01/06 07:58:48;;;;;;;5.83;5.23;;;14.40;99.90;;;;;;5090670;28;20228;-82
2023/01/06 08:01:14;;;;;;;4.80;3.27;;;15.00;99.90;;;;;;5091010;28;20218;-82
2023/01/06 08:03:40;;;;;;;3.03;2.20;;;15.30;99.90;;;;;;5090000;28;20196;-80
2023/01/06 08:06:09;;;;;;;2.20;1.70;;;15.60;99.90;;;;;;5075192;28;21179;-80
2023/01/06 08:08:36;;;;;;;3.63;2.30;;;16.10;99.90;;;;;;5093279;28;20797;-83
2023/01/06 08:11:03;;;;;;;3.33;2.10;;;16.80;99.90;;;;;;5090896;28;20445;-81
2023/01/06 08:13:29;;;;;;;3.93;2.60;;;17.60;99.90;;;;;;5088739;28;20581;-81
2023/01/06 08:15:55;;;;;;;2.40;1.43;;;18.30;99.90;;;;;;5089701;28;20462;-81
2023/01/06 08:18:20;;;;;;;3.37;2.27;;;18.60;99.90;;;;;;5090310;28;20530;-83
2023/01/06 08:20:46;;;;;;;3.40;1.70;;;18.50;99.90;;;;;;5107397;28;20628;-81
2023/01/06 08:23:12;;;;;;;3.13;2.27;;;18.70;99.90;;;;;;5111474;28;20718;-84
2023/01/06 08:25:37;;;;;;;4.63;1.87;;;18.80;99.90;;;;;;5110380;28;20203;-81
2023/01/06 08:28:03;;;;;;;3.17;2.33;;;18.90;99.90;;;;;;5113559;28;20272;-81
2023/01/06 08:30:29;;;;;;;4.20;1.30;;;18.90;99.90;;;;;;5112600;28;20446;-83
2023/01/06 08:32:56;;;;;;;4.00;1.80;;;18.90;99.90;;;;;;5112238;28;20427;-84
2023/01/06 08:35:22;;;;;;;2.60;1.30;;;18.70;99.90;;;;;;5109500;28;20551;-84
2023/01/06 08:37:48;;;;;;;3.80;2.70;;;18.60;99.90;;;;;;5110380;28;20428;-83
2023/01/06 08:40:13;;;;;;;2.50;1.50;;;18.30;99.90;;;;;;5112194;28;20174;-84
2023/01/06 08:42:39;;;;;;;2.83;1.53;;;18.00;99.90;;;;;;5108032;28;20196;-81
2023/01/06 08:45:06;;;;;;;7.20;2.20;;;17.70;99.90;;;;;;5094578;28;20546;-84
2023/01/06 08:47:32;;;;;;;1.63;1.43;;;17.60;99.90;;;;;;5090836;28;20196;-81
2023/01/06 08:49:58;;;;;;;5.37;1.70;;;17.60;99.90;;;;;;5090948;28;20435;-82
2023/01/06 08:52:24;;;;;;;2.40;1.87;;;17.80;99.90;;;;;;5089905;28;20743;-84
2023/01/06 08:54:49;;;;;;;2.80;1.60;;;18.00;99.90;;;;;;5088312;28;20283;-81
2023/01/06 08:57:15;;;;;;;2.60;1.80;;;18.50;99.90;;;;;;5089791;28;20256;-83
2023/01/06 08:59:42;;;;;;;4.03;1.73;;;18.70;99.90;;;;;;5088715;28;20225;-83
2023/01/06 09:02:11;;;;;;;2.47;1.50;;;18.70;99.90;;;;;;5087548;28;20495;-84
2023/01/06 09:04:37;;;;;;;1.73;1.63;;;18.90;99.90;;;;;;5087595;28;20648;-84
2023/01/06 09:07:02;;;;;;;3.27;1.30;;;19.30;99.90;;;;;;5088623;28;20435;-84
2023/01/06 09:09:28;;;;;;;1.60;1.50;;;19.60;98.80;;;;;;5088989;28;20490;-81
2023/01/06 09:11:54;;;;;;;2.93;1.40;;;19.90;98.00;;;;;;5089720;28;20180;-83
2023/01/06 09:14:19;;;;;;;1.50;1.20;;;20.00;97.30;;;;;;5094604;28;20175;-82
2023/01/06 09:16:47;;;;;;;1.83;1.20;;;20.40;97.00;;;;;;5109565;28;20403;-83
2023/01/06 09:19:15;;;;;;;1.53;1.30;;;20.60;96.40;;;;;;5103388;28;20204;-86
2023/01/06 09:21:41;;;;;;;1.40;0.73;;;21.00;95.00;;;;;;5108530;28;20412;-84
2023/01/06 09:24:11;;;;;;;1.20;0.80;;;21.30;94.40;;;;;;5108941;28;20489;-85
2023/01/06 09:26:37;;;;;;;2.10;1.10;;;21.40;93.80;;;;;;5110885;28;20424;-86
2023/01/06 09:29:03;;;;;;;1.13;0.87;;;21.50;93.80;;;;;;5114282;28;20451;-85
2023/01/06 09:31:29;;;;;;;1.80;1.40;;;21.80;93.40;;;;;;5113927;28;20174;-83
2023/01/06 09:33:54;;;;;;;1.30;1.20;;;22.40;92.10;;;;;;5112480;28;20222;-86
2023/01/06 09:36:21;;;;;;;1.00;0.80;;;22.70;90.50;;;;;;5113625;28;20203;-84
2023/01/06 09:38:47;;;;;;;1.33;0.80;;;22.60;90.10;;;;;;5113692;28;20195;-82
2023/01/06 09:41:40;;;;;;;1.00;0.80;;;22.40;90.30;;;;;;5112443;28;20407;-82
2023/01/06 09:44:16;;;;;;;1.13;0.97;;;22.40;90.20;;;;;;5113707;28;20431;-82
2023/01/06 09:46:45;;;;;;;2.27;1.17;;;22.50;88.60;;;;;;5112517;28;20778;-84
2023/01/06 09:49:41;;;;;;;0.60;0.60;;;22.60;88.70;;;;;;5115659;28;20435;-82
2023/01/06 09:52:28;;;;;;;0.87;0.87;;;22.70;85.80;;;;;;5116397;28;20424;-82
2023/01/06 09:54:59;;;;;;;1.33;0.80;;;22.40;84.60;;;;;;5117514;28;20462;-83
2023/01/06 09:57:34;;;;;;;1.50;0.83;;;21.90;85.80;;;;;;5117467;28;20470;-81
2023/01/06 10:00:07;;;;;;;2.80;1.03;;;21.40;87.30;;;;;;5118159;28;20791;-81
2023/01/06 10:02:38;;;;;;;1.70;1.40;;;21.00;87.90;;;;;;5117430;28;20438;-84
2023/01/06 10:05:29;;;;;;;1.07;1.00;;;20.70;88.10;;;;;;5116298;28;21028;-84
2023/01/06 10:08:02;;;;;;;1.67;1.40;;;20.60;88.80;;;;;;5116013;28;20526;-81
2023/01/06 10:11:02;;;;;;;1.37;1.13;;;20.40;88.40;;;;;;5116298;28;20427;-81
2023/01/06 10:13:55;;;;;;;1.80;1.20;;;20.10;89.30;;;;;;5117320;28;20532;-84
2023/01/06 10:16:48;;;;;;;1.43;0.80;;;19.80;88.80;;;;;;5115926;28;20821;-81
2023/01/06 10:19:42;;;;;;;1.60;1.03;;;19.50;90.00;;;;;;5103765;28;20848;-84
2023/01/06 10:22:33;;;;;;;0.77;0.73;;;19.30;90.00;;;;;;5100450;28;20458;-84
2023/01/06 10:25:17;;;;;;;1.17;1.00;;;19.10;89.20;;;;;;5102823;28;20993;-82
2023/01/06 10:28:10;;;;;;;2.63;0.87;;;18.80;89.60;;;;;;5094144;28;20451;-84
2023/01/06 10:30:46;;;;;;;1.10;0.80;;;18.40;90.40;;;;;;5094870;28;20419;-82
2023/01/06 10:33:21;;;;;;;1.70;1.60;;;18.20;91.10;;;;;;5094456;28;20424;-80
2023/01/06 10:35:48;;;;;;;1.23;0.90;;;18.10;91.00;;;;;;5095764;28;20462;-84
2023/01/06 10:38:14;;;;;;;4.60;1.73;;;17.90;91.20;;;;;;5094757;28;20442;-82
2023/01/06 10:40:40;;;;;;;1.60;0.80;;;17.70;91.20;;;;;;5095365;28;20540;-81
2023/01/06 10:43:11;;;;;;;1.67;0.80;;;17.50;91.80;;;;;;5104634;28;20571;-84
2023/01/06 10:45:42;;;;;;;1.23;0.83;;;17.50;92.40;;;;;;5102330;28;20653;-85
2023/01/06 10:48:15;;;;;;;2.20;1.43;;;17.50;92.10;;;;;;5106365;28;20448;-81
2023/01/06 10:50:41;;;;;;;1.10;0.90;;;17.30;91.80;;;;;;5097947;28;20458;-85
2023/01/06 10:53:09;;;;;;;2.60;0.90;;;17.20;92.20;;;;;;5106828;28;20505;-84
2023/01/06 10:55:57;;;;;;;1.60;0.80;;;17.10;92.20;;;;;;5094796;28;20242;-84
2023/01/06 10:58:39;;;;;;;1.23;0.83;;;16.90;92.60;;;;;;5096107;28;21012;-84
2023/01/06 11:01:11;;;;;;;0.70;0.70;;;16.70;92.80;;;;;;5094269;28;20496;-83
2023/01/06 11:03:41;;;;;;;1.33;0.67;;;16.60;92.90;;;;;;5099190;28;20460;-79
2023/01/06 11:06:15;;;;;;;1.30;1.20;;;16.50;92.80;;;;;;5104734;28;20432;-83
2023/01/06 11:08:41;;;;;;;1.20;1.10;;;16.40;93.00;;;;;;5111481;28;20542;-80
2023/01/06 11:11:13;;;;;;;1.30;1.00;;;16.30;93.50;;;;;;5112947;28;20499;-81
2023/01/06 11:13:45;;;;;;;3.00;1.70;;;16.30;93.80;;;;;;5114277;28;20552;-80
2023/01/06 11:16:26;;;;;;;4.33;1.63;;;16.30;94.00;;;;;;5114189;28;20448;-81
2023/01/06 11:18:55;;;;;;;4.50;2.20;;;16.30;94.30;;;;;;5112769;28;20442;-81
2023/01/06 11:21:21;;;;;;;1.17;0.93;;;16.30;94.40;;;;;;5111773;28;20398;-79
2023/01/06 11:23:47;;;;;;;1.50;1.30;;;16.40;94.30;;;;;;5112060;28;20487;-80
2023/01/06 11:26:26;;;;;;;1.17;1.10;;;16.40;94.40;;;;;;5113078;28;20400;-81
2023/01/06 11:28:54;;;;;;;2.60;1.43;;;16.40;94.20;;;;;;5112555;28;20448;-81
2023/01/06 11:31:26;;;;;;;2.00;1.50;;;16.30;94.00;;;;;;5111078;28;20503;-82
2023/01/06 11:33:58;;;;;;;1.10;1.00;;;16.20;94.10;;;;;;5111699;28;20439;-79
2023/01/06 11:36:30;;;;;;;1.33;1.23;;;16.30;94.70;;;;;;5111390;28;20457;-81
2023/01/06 11:39:16;;;;;;;2.57;1.03;;;16.30;94.50;;;;;;5109236;28;20436;-81
2023/01/06 11:41:48;;;;;;;1.33;1.10;;;16.30;94.50;;;;;;5099420;28;20424;-79
2023/01/06 11:44:14;;;;;;;1.77;1.17;;;16.30;94.50;;;;;;5111607;28;20439;-80
2023/01/06 11:46:48;;;;;;;3.77;1.80;;;16.30;94.20;;;;;;5111613;28;20403;-81
2023/01/06 11:49:25;;;;;;;1.20;0.90;;;16.10;94.10;;;;;;5111268;28;20192;-80
2023/01/06 11:52:16;;;;;;;1.00;0.80;;;16.00;94.20;;;;;;5113528;28;20388;-82
2023/01/06 11:54:42;;;;;;;2.00;1.43;;;15.90;94.10;;;;;;5114958;28;20551;-81
2023/01/06 11:57:41;;;;;;;1.37;0.90;;;15.80;94.60;;;;;;5113578;28;20803;-82
2023/01/06 12:00:19;;;;;;;1.50;0.97;;;15.80;95.10;;;;;;5098614;27;20618;-80
2023/01/06 12:03:06;;;;;;;1.37;1.27;;;15.80;95.10;;;;;;5114228;28;20523;-82
2023/01/06 12:05:35;;;;;;;1.40;1.30;;;15.80;95.40;;;;;;5115249;28;20893;-82
2023/01/06 12:08:23;;;;;;;2.80;1.90;;;15.70;95.30;;;;;;5113966;28;21084;-80
2023/01/06 12:10:59;;;;;;;1.73;1.30;;;15.60;95.50;;;;;;5114699;28;20420;-79
2023/01/06 12:13:26;;;;;;;1.60;1.07;;;15.60;95.50;;;;;;5106398;28;20462;-79
2023/01/06 12:16:01;;;;;;;1.23;1.13;;;15.60;96.10;;;;;;5112327;28;20459;-82
2023/01/06 12:18:31;;;;;;;2.03;1.20;;;15.60;96.20;;;;;;5113536;28;20472;-80
2023/01/06 12:20:59;;;;;;;1.37;1.27;;;15.60;96.10;;;;;;5114909;28;20896;-83
2023/01/06 12:23:38;;;;;;;1.40;1.20;;;15.70;96.00;;;;;;5112546;28;20479;-82
2023/01/06 12:26:13;;;;;;;2.03;1.20;;;15.80;96.10;;;;;;5114003;28;20950;-83
2023/01/06 12:28:41;;;;;;;1.40;1.20;;;15.80;96.10;;;;;;5114761;28;20435;-79
2023/01/06 12:31:33;;;;;;;1.40;1.30;;;15.80;96.10;;;;;;5113106;28;20483;-82
2023/01/06 12:34:07;;;;;;;1.47;1.30;;;15.90;96.50;;;;;;5094464;28;20452;-83
2023/01/06 12:36:51;;;;;;;2.20;1.33;;;15.90;96.00;;;;;;5094228;28;20502;-83
2023/01/06 12:39:26;;;;;;;0.90;0.90;;;15.90;96.20;;;;;;5092308;28;20775;-80
2023/01/06 12:42:22;;;;;;;0.97;0.87;;;15.90;95.90;;;;;;5103535;28;20400;-79
2023/01/06 12:44:56;;;;;;;1.30;0.90;;;16.00;95.70;;;;;;5084437;28;20429;-79
2023/01/06 12:47:43;;;;;;;1.80;1.70;;;16.00;95.80;;;;;;5098323;28;20478;-79
2023/01/06 12:50:37;;;;;;;1.70;1.13;;;16.00;95.80;;;;;;5102728;28;20451;-83
2023/01/06 12:53:24;;;;;;;2.47;1.40;;;15.90;96.40;;;;;;5112990;28;20452;-84
2023/01/06 12:56:11;;;;;;;1.53;1.43;;;16.00;96.10;;;;;;5114012;28;20511;-83
2023/01/06 12:58:57;;;;;;;1.80;1.20;;;16.00;96.10;;;;;;5112570;28;20454;-83
2023/01/06 13:01:46;;;;;;;1.37;1.20;;;16.00;95.60;;;;;;5110873;28;20420;-83
2023/01/06 13:04:36;;;;;;;1.47;1.20;;;15.90;95.40;;;;;;5114134;28;20440;-80
2023/01/06 13:07:13;;;;;;;1.83;1.03;;;15.80;95.40;;;;;;5114496;28;20448;-79
2023/01/06 13:10:06;;;;;;;1.60;1.50;;;15.80;95.60;;;;;;5110232;28;20436;-80
2023/01/06 13:12:38;;;;;;;2.23;1.20;;;15.80;95.60;;;;;;5106275;28;20470;-80